createdAt,value
2023-02-18T00:01:11.570Z,100.00
2023-02-18T00:03:38.683Z,100.00
2023-02-18T00:06:23.496Z,100.00
2023-02-18T00:08:50.659Z,100.00
2023-02-18T00:11:19.295Z,100.00
2023-02-18T00:14:13.517Z,100.00
2023-02-18T00:16:40.816Z,100.00
2023-02-18T00:19:11.182Z,100.00
2023-02-18T00:21:38.453Z,100.00
2023-02-18T00:24:06.000Z,100.00
2023-02-18T00:26:32.957Z,100.00
2023-02-18T00:28:59.551Z,100.00
2023-02-18T00:31:32.646Z,100.00
2023-02-18T00:34:00.147Z,100.00
2023-02-18T00:36:27.783Z,100.00
2023-02-18T00:38:57.172Z,100.00
2023-02-18T00:41:25.561Z,100.00
2023-02-18T00:43:52.580Z,100.00
2023-02-18T00:46:19.186Z,100.00
2023-02-18T00:48:45.799Z,100.00
2023-02-18T00:51:12.626Z,100.00
2023-02-18T00:53:40.366Z,100.00
2023-02-18T00:56:08.228Z,100.00
2023-02-18T00:58:36.351Z,100.00
2023-02-18T01:01:07.227Z,100.00
2023-02-18T01:03:34.590Z,100.00
2023-02-18T01:06:01.262Z,100.00
2023-02-18T01:08:27.888Z,100.00
2023-02-18T01:10:57.201Z,100.00
2023-02-18T01:13:24.023Z,100.00
2023-02-18T01:15:50.796Z,100.00
2023-02-18T01:18:18.023Z,100.00
2023-02-18T01:20:45.683Z,100.00
2023-02-18T01:23:13.342Z,100.00
2023-02-18T01:25:40.378Z,100.00
2023-02-18T01:28:09.196Z,100.00
2023-02-18T01:30:35.841Z,100.00
2023-02-18T01:33:02.466Z,100.00
2023-02-18T01:35:29.570Z,100.00
2023-02-18T01:37:56.288Z,100.00
2023-02-18T01:40:26.247Z,100.00
2023-02-18T01:42:52.871Z,100.00
2023-02-18T01:45:34.717Z,100.00
2023-02-18T01:48:07.389Z,100.00
2023-02-18T01:50:36.075Z,100.00
2023-02-18T01:53:03.507Z,100.00
2023-02-18T01:55:30.196Z,100.00
2023-02-18T01:57:56.779Z,100.00
2023-02-18T02:00:23.725Z,100.00
2023-02-18T02:02:52.460Z,100.00
2023-02-18T02:05:20.509Z,100.00
2023-02-18T02:07:50.475Z,100.00
2023-02-18T02:10:18.073Z,100.00
2023-02-18T02:13:12.042Z,100.00
2023-02-18T02:15:58.812Z,100.00
2023-02-18T02:18:40.971Z,100.00
2023-02-18T02:21:07.503Z,100.00
2023-02-18T02:24:07.628Z,100.00
2023-02-18T02:27:02.440Z,100.00
2023-02-18T02:29:35.093Z,100.00
2023-02-18T02:32:01.629Z,100.00
2023-02-18T02:34:47.421Z,100.00
2023-02-18T02:37:32.762Z,100.00
2023-02-18T02:40:08.210Z,100.00
2023-02-18T02:42:41.455Z,100.00
2023-02-18T02:45:33.459Z,100.00
2023-02-18T02:48:38.340Z,100.00
2023-02-18T02:51:25.094Z,100.00
2023-02-18T02:53:51.635Z,100.00
2023-02-18T02:56:22.080Z,100.00
2023-02-18T02:59:01.755Z,100.00
2023-02-18T03:02:05.147Z,100.00
2023-02-18T03:05:02.620Z,100.00
2023-02-18T03:08:01.533Z,100.00
2023-02-18T03:10:40.516Z,100.00
2023-02-18T03:13:51.516Z,100.00
2023-02-18T03:16:33.019Z,100.00
2023-02-18T03:19:14.662Z,100.00
2023-02-18T03:22:00.895Z,100.00
2023-02-18T03:24:32.714Z,100.00
2023-02-18T03:27:16.263Z,100.00
2023-02-18T03:29:46.508Z,100.00
2023-02-18T03:32:18.392Z,100.00
2023-02-18T03:34:51.315Z,100.00
2023-02-18T03:37:18.396Z,100.00
2023-02-18T03:39:49.010Z,100.00
2023-02-18T03:42:18.686Z,100.00
2023-02-18T03:44:45.405Z,100.00
2023-02-18T03:47:12.865Z,100.00
2023-02-18T03:49:39.439Z,100.00
2023-02-18T03:52:06.020Z,100.00
2023-02-18T03:54:32.601Z,100.00
2023-02-18T03:56:59.216Z,100.00
2023-02-18T03:59:25.812Z,100.00
2023-02-18T04:01:52.411Z,100.00
2023-02-18T04:04:19.054Z,100.00
2023-02-18T04:06:45.741Z,100.00
2023-02-18T04:09:12.362Z,100.00
2023-02-18T04:11:40.458Z,100.00
2023-02-18T04:14:07.693Z,100.00
2023-02-18T04:16:34.383Z,100.00
2023-02-18T04:19:01.025Z,100.00
2023-02-18T04:21:27.592Z,100.00
2023-02-18T04:23:54.193Z,100.00
2023-02-18T04:26:20.787Z,100.00
2023-02-18T04:28:47.358Z,100.00
2023-02-18T04:31:14.141Z,100.00
2023-02-18T04:33:40.993Z,100.00
2023-02-18T04:36:08.234Z,100.00
2023-02-18T04:38:34.958Z,100.00
2023-02-18T04:41:01.787Z,100.00
2023-02-18T04:43:28.475Z,100.00
2023-02-18T04:45:55.067Z,100.00
2023-02-18T04:48:21.690Z,100.00
2023-02-18T04:50:48.363Z,100.00
2023-02-18T04:53:14.930Z,100.00
2023-02-18T04:55:41.534Z,100.00
2023-02-18T04:58:10.063Z,100.00
2023-02-18T05:00:36.730Z,100.00
2023-02-18T05:03:03.391Z,100.00
2023-02-18T05:05:30.035Z,100.00
2023-02-18T05:07:56.621Z,100.00
2023-02-18T05:10:23.195Z,100.00
2023-02-18T05:12:49.893Z,100.00
2023-02-18T05:15:16.631Z,100.00
2023-02-18T05:17:43.243Z,100.00
2023-02-18T05:20:10.583Z,100.00
2023-02-18T05:22:38.160Z,100.00
2023-02-18T05:25:05.648Z,100.00
2023-02-18T05:27:32.498Z,100.00
2023-02-18T05:29:59.061Z,100.00
2023-02-18T05:32:26.626Z,100.00
2023-02-18T05:34:53.272Z,100.00
2023-02-18T05:37:19.893Z,100.00
2023-02-18T05:39:46.738Z,100.00
2023-02-18T05:42:13.328Z,100.00
2023-02-18T05:44:40.033Z,100.00
2023-02-18T05:47:11.419Z,100.00
2023-02-18T05:49:39.624Z,100.00
2023-02-18T05:52:07.147Z,100.00
2023-02-18T05:54:34.298Z,100.00
2023-02-18T05:57:01.164Z,100.00
2023-02-18T05:59:27.931Z,100.00
2023-02-18T06:01:54.947Z,100.00
2023-02-18T06:04:21.534Z,100.00
2023-02-18T06:06:48.180Z,100.00
2023-02-18T06:09:15.036Z,100.00
2023-02-18T06:11:41.634Z,100.00
2023-02-18T06:14:08.290Z,100.00
2023-02-18T06:16:36.136Z,100.00
2023-02-18T06:19:02.723Z,100.00
2023-02-18T06:21:29.557Z,100.00
2023-02-18T06:23:57.627Z,100.00
2023-02-18T06:26:24.599Z,100.00
2023-02-18T06:28:51.226Z,100.00
2023-02-18T06:31:17.942Z,100.00
2023-02-18T06:33:44.635Z,100.00
2023-02-18T06:36:12.610Z,100.00
2023-02-18T06:38:41.601Z,100.00
2023-02-18T06:41:08.672Z,100.00
2023-02-18T06:43:35.669Z,100.00
2023-02-18T06:46:16.866Z,100.00
2023-02-18T06:48:43.494Z,100.00
2023-02-18T06:51:10.149Z,100.00
2023-02-18T06:53:36.864Z,100.00
2023-02-18T06:56:03.853Z,100.00
2023-02-18T06:58:30.507Z,100.00
2023-02-18T07:00:57.110Z,100.00
2023-02-18T07:03:23.846Z,100.00
2023-02-18T07:05:50.466Z,100.00
2023-02-18T07:08:17.835Z,100.00
2023-02-18T07:10:44.657Z,100.00
2023-02-18T07:13:11.278Z,100.00
2023-02-18T07:15:38.078Z,100.00
2023-02-18T07:18:04.881Z,100.00
2023-02-18T07:20:31.468Z,100.00
2023-02-18T07:22:58.354Z,100.00
2023-02-18T07:25:25.609Z,100.00
2023-02-18T07:27:52.364Z,100.00
2023-02-18T07:30:20.442Z,100.00
2023-02-18T07:32:47.142Z,100.00
2023-02-18T07:35:15.438Z,100.00
2023-02-18T07:37:49.623Z,100.00
2023-02-18T07:40:20.567Z,100.00
2023-02-18T07:42:47.732Z,100.00
2023-02-18T07:45:15.234Z,100.00
2023-02-18T07:47:42.588Z,100.00
2023-02-18T07:50:10.035Z,100.00
2023-02-18T07:52:36.599Z,100.00
2023-02-18T07:55:03.732Z,100.00
2023-02-18T07:57:30.316Z,100.00
2023-02-18T07:59:56.854Z,100.00
2023-02-18T08:02:24.554Z,100.00
2023-02-18T08:04:51.433Z,100.00
2023-02-18T08:07:20.566Z,100.00
2023-02-18T08:09:47.062Z,100.00
2023-02-18T08:12:13.726Z,100.00
2023-02-18T08:14:41.665Z,100.00
2023-02-18T08:17:08.257Z,100.00
2023-02-18T08:19:34.796Z,100.00
2023-02-18T08:22:03.181Z,100.00
2023-02-18T08:24:29.874Z,100.00
2023-02-18T08:27:00.922Z,100.00
2023-02-18T08:29:28.534Z,100.00
2023-02-18T08:31:57.302Z,100.00
2023-02-18T08:34:24.008Z,100.00
2023-02-18T08:36:50.572Z,100.00
2023-02-18T08:39:17.172Z,100.00
2023-02-18T08:41:43.807Z,100.00
2023-02-18T08:44:10.401Z,100.00
2023-02-18T08:46:37.210Z,100.00
2023-02-18T08:49:05.034Z,100.00
2023-02-18T08:51:31.733Z,100.00
2023-02-18T08:53:58.715Z,100.00
2023-02-18T08:56:27.463Z,100.00
2023-02-18T08:58:54.050Z,100.00
2023-02-18T09:01:20.938Z,100.00
2023-02-18T09:03:48.369Z,100.00
2023-02-18T09:06:15.106Z,100.00
2023-02-18T09:08:42.157Z,100.00
2023-02-18T09:11:11.098Z,100.00
2023-02-18T09:13:37.686Z,100.00
2023-02-18T09:16:07.335Z,100.00
2023-02-18T09:18:37.630Z,100.00
2023-02-18T09:21:06.839Z,100.00
2023-02-18T09:23:34.337Z,100.00
2023-02-18T09:26:05.319Z,100.00
2023-02-18T09:28:31.998Z,100.00
2023-02-18T09:31:00.397Z,100.00
2023-02-18T09:33:27.098Z,100.00
2023-02-18T09:35:53.683Z,100.00
2023-02-18T09:38:20.438Z,100.00
2023-02-18T09:40:53.755Z,100.00
2023-02-18T09:43:31.458Z,100.00
2023-02-18T09:46:00.371Z,100.00
2023-02-18T09:48:31.529Z,100.00
2023-02-18T09:50:58.890Z,100.00
2023-02-18T09:53:25.788Z,100.00
2023-02-18T09:55:56.243Z,100.00
2023-02-18T09:58:31.683Z,100.00
2023-02-18T10:01:11.757Z,100.00
2023-02-18T10:03:40.554Z,100.00
2023-02-18T10:06:22.536Z,100.00
2023-02-18T10:08:52.006Z,100.00
2023-02-18T10:11:36.802Z,100.00
2023-02-18T10:14:10.372Z,100.00
2023-02-18T10:16:37.021Z,100.00
2023-02-18T10:19:24.073Z,100.00
2023-02-18T10:21:52.478Z,100.00
2023-02-18T10:24:31.014Z,100.00
2023-02-18T10:26:59.241Z,100.00
2023-02-18T10:29:34.135Z,100.00
2023-02-18T10:32:26.931Z,100.00
2023-02-18T10:34:53.657Z,100.00
2023-02-18T10:37:59.129Z,100.00
2023-02-18T10:40:38.019Z,100.00
2023-02-18T10:43:10.195Z,100.00
2023-02-18T10:45:43.555Z,100.00
2023-02-18T10:48:36.891Z,100.00
2023-02-18T10:51:15.047Z,100.00
2023-02-18T10:53:43.974Z,100.00
2023-02-18T10:56:35.638Z,100.00
2023-02-18T10:59:11.308Z,100.00
2023-02-18T11:01:38.451Z,100.00
2023-02-18T11:04:21.684Z,100.00
2023-02-18T11:06:51.388Z,100.00
2023-02-18T11:09:30.003Z,100.00
2023-02-18T11:12:08.833Z,100.00
2023-02-18T11:14:43.305Z,100.00
2023-02-18T11:17:18.105Z,100.00
2023-02-18T11:19:53.196Z,100.00
2023-02-18T11:22:33.023Z,100.00
2023-02-18T11:25:02.574Z,100.00
2023-02-18T11:27:43.856Z,100.00
2023-02-18T11:30:22.578Z,100.00
2023-02-18T11:32:57.064Z,100.00
2023-02-18T11:35:27.070Z,100.00
2023-02-18T11:37:55.355Z,100.00
2023-02-18T11:40:26.384Z,100.00
2023-02-18T11:43:13.514Z,100.00
2023-02-18T11:45:40.551Z,100.00
2023-02-18T11:48:18.763Z,100.00
2023-02-18T11:50:50.235Z,100.00
2023-02-18T11:53:30.441Z,100.00
2023-02-18T11:56:00.659Z,100.00
2023-02-18T11:58:31.447Z,100.00
2023-02-18T12:01:03.469Z,100.00
2023-02-18T12:03:48.911Z,100.00
2023-02-18T12:06:24.792Z,100.00
2023-02-18T12:09:01.421Z,100.00
2023-02-18T12:11:38.841Z,100.00
2023-02-18T12:14:12.754Z,100.00
2023-02-18T12:16:50.668Z,100.00
2023-02-18T12:19:38.914Z,100.00
2023-02-18T12:22:23.560Z,100.00
2023-02-18T12:25:02.223Z,100.00
2023-02-18T12:27:51.980Z,97.25
2023-02-18T12:30:55.665Z,97.38
2023-02-18T12:34:03.951Z,99.44
2023-02-18T12:37:08.024Z,96.90
2023-02-18T12:40:01.125Z,96.05
2023-02-18T12:42:57.615Z,95.50
2023-02-18T12:45:36.318Z,93.69
2023-02-18T12:48:27.704Z,96.04
2023-02-18T12:51:13.016Z,100.00
2023-02-18T12:53:58.109Z,96.36
2023-02-18T12:56:52.827Z,94.43
2023-02-18T13:00:00.628Z,96.57
2023-02-18T13:02:43.256Z,95.81
2023-02-18T13:05:38.488Z,95.82
2023-02-18T13:08:18.946Z,98.34
2023-02-18T13:11:09.745Z,96.33
2023-02-18T13:14:17.152Z,96.19
2023-02-18T13:16:49.778Z,95.35
2023-02-18T13:19:31.817Z,94.12
2023-02-18T13:22:02.283Z,95.75
2023-02-18T13:24:37.831Z,94.58
2023-02-18T13:27:39.750Z,92.20
2023-02-18T13:30:36.451Z,91.59
2023-02-18T13:33:18.532Z,89.65
2023-02-18T13:36:03.407Z,88.31
2023-02-18T13:38:41.750Z,86.92
2023-02-18T13:41:09.016Z,87.87
2023-02-18T13:43:36.748Z,90.53
2023-02-18T13:46:04.819Z,89.49
2023-02-18T13:48:34.121Z,87.29
2023-02-18T13:51:04.281Z,85.32
2023-02-18T13:53:42.785Z,86.94
2023-02-18T13:56:20.731Z,87.20
2023-02-18T13:59:00.745Z,87.39
2023-02-18T14:01:44.196Z,87.69
2023-02-18T14:04:42.234Z,86.56
2023-02-18T14:07:39.381Z,89.84
2023-02-18T14:10:20.627Z,88.99
2023-02-18T14:12:56.488Z,88.21
2023-02-18T14:15:23.121Z,87.32
2023-02-18T14:18:14.266Z,88.38
2023-02-18T14:20:40.933Z,89.56
2023-02-18T14:23:19.512Z,89.34
2023-02-18T14:26:04.791Z,87.66
2023-02-18T14:28:34.387Z,87.57
2023-02-18T14:31:13.583Z,88.36
2023-02-18T14:33:53.062Z,88.19
2023-02-18T14:36:36.455Z,87.18
2023-02-18T14:39:14.718Z,86.25
2023-02-18T14:42:22.652Z,88.04
2023-02-18T14:45:04.551Z,89.00
2023-02-18T14:47:46.285Z,89.94
2023-02-18T14:50:16.847Z,91.64
2023-02-18T14:52:47.959Z,91.51
2023-02-18T14:55:32.807Z,90.35
2023-02-18T14:58:01.463Z,89.95
2023-02-18T15:00:32.196Z,89.27
2023-02-18T15:03:02.254Z,90.13
2023-02-18T15:05:31.983Z,89.64
2023-02-18T15:08:00.096Z,91.43
2023-02-18T15:10:37.286Z,91.29
2023-02-18T15:13:08.314Z,91.59
2023-02-18T15:15:36.186Z,92.31
2023-02-18T15:18:04.466Z,91.43
2023-02-18T15:20:35.481Z,91.82
2023-02-18T15:23:02.361Z,93.38
2023-02-18T15:25:29.108Z,94.12
2023-02-18T15:27:55.847Z,94.87
2023-02-18T15:30:29.923Z,94.75
2023-02-18T15:33:01.339Z,95.88
2023-02-18T15:35:31.657Z,95.86
2023-02-18T15:38:00.327Z,95.54
2023-02-18T15:40:38.252Z,94.70
2023-02-18T15:43:06.776Z,91.77
2023-02-18T15:45:37.358Z,91.75
2023-02-18T15:48:05.977Z,94.38
2023-02-18T15:50:36.579Z,95.12
2023-02-18T15:53:09.377Z,94.61
2023-02-18T15:55:40.521Z,90.40
2023-02-18T15:58:31.236Z,88.35
2023-02-18T16:00:59.964Z,88.08
2023-02-18T16:03:45.484Z,88.32
2023-02-18T16:06:22.250Z,88.20
2023-02-18T16:09:09.836Z,88.03
2023-02-18T16:11:40.224Z,87.83
2023-02-18T16:14:07.396Z,88.02
2023-02-18T16:16:37.241Z,88.54
2023-02-18T16:19:04.529Z,87.69
2023-02-18T16:21:40.037Z,88.43
2023-02-18T16:24:27.856Z,89.06
2023-02-18T16:26:57.736Z,88.70
2023-02-18T16:29:26.280Z,89.21
2023-02-18T16:31:53.102Z,90.14
2023-02-18T16:34:19.923Z,90.39
2023-02-18T16:37:05.000Z,90.71
2023-02-18T16:39:34.689Z,90.80
2023-02-18T16:42:01.749Z,91.67
2023-02-18T16:44:28.531Z,91.31
2023-02-18T16:46:55.301Z,92.35
2023-02-18T16:49:21.930Z,91.83
2023-02-18T16:51:49.011Z,93.28
2023-02-18T16:54:16.587Z,93.37
2023-02-18T16:56:43.321Z,93.72
2023-02-18T16:59:09.999Z,94.01
2023-02-18T17:01:41.584Z,94.92
2023-02-18T17:04:12.870Z,94.73
2023-02-18T17:06:39.571Z,94.83
2023-02-18T17:09:17.035Z,95.01
2023-02-18T17:11:56.515Z,95.54
2023-02-18T17:14:23.817Z,96.06
2023-02-18T17:16:53.619Z,96.63
2023-02-18T17:19:21.398Z,96.92
2023-02-18T17:21:49.344Z,96.11
2023-02-18T17:24:18.061Z,96.61
2023-02-18T17:26:44.963Z,97.51
2023-02-18T17:29:11.742Z,98.17
2023-02-18T17:31:44.416Z,98.40
2023-02-18T17:34:17.954Z,99.00
2023-02-18T17:36:45.661Z,98.20
2023-02-18T17:39:15.168Z,98.91
2023-02-18T17:41:42.681Z,99.12
2023-02-18T17:44:21.809Z,99.09
2023-02-18T17:46:51.166Z,100.00
2023-02-18T17:49:18.546Z,100.00
2023-02-18T17:51:45.195Z,100.00
2023-02-18T17:54:22.706Z,100.00
2023-02-18T17:56:49.408Z,100.00
2023-02-18T17:59:16.223Z,100.00
2023-02-18T18:01:44.116Z,100.00
2023-02-18T18:04:16.506Z,100.00
2023-02-18T18:06:44.040Z,100.00
2023-02-18T18:09:10.731Z,100.00
2023-02-18T18:11:38.168Z,100.00
2023-02-18T18:14:05.085Z,100.00
2023-02-18T18:16:31.872Z,100.00
2023-02-18T18:18:58.499Z,100.00
2023-02-18T18:21:35.609Z,100.00
2023-02-18T18:24:02.941Z,100.00
2023-02-18T18:26:30.160Z,100.00
2023-02-18T18:28:56.859Z,100.00
2023-02-18T18:31:23.587Z,100.00
2023-02-18T18:33:53.171Z,100.00
2023-02-18T18:36:21.390Z,100.00
2023-02-18T18:38:47.975Z,100.00
2023-02-18T18:41:17.927Z,100.00
2023-02-18T18:43:44.718Z,100.00
2023-02-18T18:46:11.396Z,100.00
2023-02-18T18:48:38.341Z,100.00
2023-02-18T18:51:05.583Z,100.00
2023-02-18T18:53:34.577Z,100.00
2023-02-18T18:56:04.828Z,100.00
2023-02-18T18:58:31.726Z,100.00
2023-02-18T19:01:03.354Z,100.00
2023-02-18T19:03:30.782Z,100.00
2023-02-18T19:05:58.040Z,100.00
2023-02-18T19:08:24.953Z,100.00
2023-02-18T19:10:56.836Z,100.00
2023-02-18T19:13:32.170Z,100.00
2023-02-18T19:16:07.456Z,100.00
2023-02-18T19:18:34.683Z,100.00
2023-02-18T19:21:05.260Z,100.00
2023-02-18T19:23:32.803Z,100.00
2023-02-18T19:25:59.825Z,100.00
2023-02-18T19:28:27.359Z,100.00
2023-02-18T19:30:54.430Z,100.00
2023-02-18T19:33:21.435Z,100.00
2023-02-18T19:35:48.015Z,100.00
2023-02-18T19:38:17.049Z,100.00
2023-02-18T19:40:45.835Z,100.00
2023-02-18T19:43:12.886Z,100.00
2023-02-18T19:45:44.601Z,100.00
2023-02-18T19:48:12.388Z,100.00
2023-02-18T19:50:40.664Z,100.00
2023-02-18T19:53:07.656Z,100.00
2023-02-18T19:55:34.283Z,100.00
2023-02-18T19:58:00.921Z,100.00
2023-02-18T20:00:27.620Z,100.00
2023-02-18T20:02:54.849Z,100.00
2023-02-18T20:05:21.551Z,100.00
2023-02-18T20:07:48.404Z,100.00
2023-02-18T20:10:20.067Z,100.00
2023-02-18T20:12:52.243Z,100.00
2023-02-18T20:15:19.202Z,100.00
2023-02-18T20:17:45.732Z,100.00
2023-02-18T20:20:12.596Z,100.00
2023-02-18T20:22:39.190Z,100.00
2023-02-18T20:25:06.199Z,100.00
2023-02-18T20:27:33.276Z,100.00
2023-02-18T20:29:59.884Z,100.00
2023-02-18T20:32:26.663Z,100.00
2023-02-18T20:34:53.880Z,100.00
2023-02-18T20:37:20.594Z,100.00
2023-02-18T20:39:47.283Z,100.00
2023-02-18T20:42:16.587Z,100.00
2023-02-18T20:44:44.286Z,100.00
2023-02-18T20:47:13.653Z,100.00
2023-02-18T20:49:40.654Z,100.00
2023-02-18T20:52:08.419Z,100.00
2023-02-18T20:54:35.138Z,100.00
2023-02-18T20:57:02.003Z,100.00
2023-02-18T20:59:29.837Z,100.00
2023-02-18T21:01:57.269Z,100.00
2023-02-18T21:04:23.875Z,100.00
2023-02-18T21:06:50.892Z,100.00
2023-02-18T21:09:18.125Z,100.00
2023-02-18T21:11:44.810Z,100.00
2023-02-18T21:14:12.404Z,100.00
2023-02-18T21:16:39.215Z,100.00
2023-02-18T21:19:12.748Z,100.00
2023-02-18T21:21:39.408Z,100.00
2023-02-18T21:24:06.323Z,100.00
2023-02-18T21:26:38.399Z,100.00
2023-02-18T21:29:07.346Z,100.00
2023-02-18T21:31:39.947Z,100.00
2023-02-18T21:34:10.182Z,100.00
2023-02-18T21:36:36.814Z,100.00
2023-02-18T21:39:09.161Z,100.00
2023-02-18T21:41:39.818Z,100.00
2023-02-18T21:44:08.081Z,100.00
2023-02-18T21:46:36.971Z,100.00
2023-02-18T21:49:05.878Z,100.00
2023-02-18T21:51:54.224Z,100.00
2023-02-18T21:54:33.831Z,100.00
2023-02-18T21:57:04.279Z,100.00
2023-02-18T21:59:32.882Z,100.00
2023-02-18T22:02:00.878Z,100.00
2023-02-18T22:04:29.859Z,100.00
2023-02-18T22:06:56.908Z,100.00
2023-02-18T22:09:23.547Z,100.00
2023-02-18T22:11:50.557Z,100.00
2023-02-18T22:14:17.369Z,100.00
2023-02-18T22:16:44.298Z,100.00
2023-02-18T22:19:12.548Z,100.00
2023-02-18T22:21:39.931Z,100.00
2023-02-18T22:24:07.478Z,100.00
2023-02-18T22:26:34.388Z,100.00
2023-02-18T22:29:01.417Z,100.00
2023-02-18T22:31:30.208Z,100.00
2023-02-18T22:33:58.365Z,100.00
2023-02-18T22:36:26.441Z,100.00
2023-02-18T22:38:53.838Z,100.00
2023-02-18T22:41:23.300Z,100.00
2023-02-18T22:43:57.117Z,100.00
2023-02-18T22:46:24.762Z,100.00
2023-02-18T22:48:52.104Z,100.00
2023-02-18T22:51:19.899Z,100.00
2023-02-18T22:53:46.662Z,100.00
2023-02-18T22:56:16.167Z,100.00
2023-02-18T22:58:44.387Z,100.00
2023-02-18T23:01:23.075Z,100.00
2023-02-18T23:03:50.963Z,100.00
2023-02-18T23:06:19.270Z,100.00
2023-02-18T23:08:47.477Z,100.00
2023-02-18T23:11:21.008Z,100.00
2023-02-18T23:14:07.029Z,100.00
2023-02-18T23:16:54.816Z,100.00
2023-02-18T23:19:22.384Z,100.00
2023-02-18T23:21:48.980Z,100.00
2023-02-18T23:24:15.936Z,100.00
2023-02-18T23:26:42.695Z,100.00
2023-02-18T23:29:09.495Z,100.00
2023-02-18T23:31:38.993Z,100.00
2023-02-18T23:34:07.953Z,100.00
2023-02-18T23:36:35.997Z,100.00
2023-02-18T23:39:08.243Z,100.00
2023-02-18T23:41:35.927Z,100.00
2023-02-18T23:44:06.742Z,100.00
2023-02-18T23:46:34.516Z,100.00
2023-02-18T23:49:01.656Z,100.00
2023-02-18T23:51:29.828Z,100.00
2023-02-18T23:53:56.955Z,100.00
2023-02-18T23:56:25.806Z,100.00
2023-02-18T23:58:57.659Z,100.00
